Time;durP1;ratioP1;P1;durP2;ratioP2;P2;SDS_P1;SDS_P2;PMS_P1;PMS_P2;Temp;Humidity;BMP_temperature;BMP_pressure;BME280_temperature;BME280_humidity;BME280_pressure;Samples;Min_cycle;Max_cycle;Signal;HPM_P1;HPM_P2
2023/10/05 00:02:04;;;;;;;12.82;4.38;;;16.80;91.70;;;;;;7380238;19;20020;-78
2023/10/05 00:04:39;;;;;;;14.60;4.90;;;16.80;91.30;;;;;;7381920;19;20002;-77
2023/10/05 00:07:10;;;;;;;22.55;5.07;;;16.70;91.20;;;;;;7381756;19;20010;-77
2023/10/05 00:09:41;;;;;;;13.45;4.18;;;16.70;91.30;;;;;;7379733;19;20381;-77
2023/10/05 00:12:18;;;;;;;;;;;16.70;91.30;;;;;;7401543;19;20030;-77
2023/10/05 00:14:55;;;;;;;10.88;3.42;;;16.70;91.30;;;;;;7380838;19;20543;-77
2023/10/05 00:20:38;;;;;;;12.10;3.23;;;16.70;91.40;;;;;;7380582;19;19994;-76
2023/10/05 00:23:09;;;;;;;10.43;3.83;;;16.70;91.40;;;;;;7381123;19;20011;-77
2023/10/05 00:25:42;;;;;;;9.77;3.60;;;16.70;91.40;;;;;;7385149;19;20017;-76
2023/10/05 00:28:11;;;;;;;12.20;4.68;;;16.80;91.40;;;;;;7389315;19;20014;-77
2023/10/05 00:30:40;;;;;;;7.85;3.47;;;16.70;91.20;;;;;;7392293;19;20011;-77
2023/10/05 00:33:11;;;;;;;12.95;3.63;;;16.70;91.70;;;;;;7415525;19;20028;-79
2023/10/05 00:35:40;;;;;;;6.68;3.45;;;16.70;91.30;;;;;;7392440;19;20010;-76
2023/10/05 00:38:12;;;;;;;9.90;3.35;;;16.70;91.30;;;;;;7381627;19;20074;-77
2023/10/05 00:40:55;;;;;;;10.15;3.70;;;16.70;91.40;;;;;;7382660;19;20393;-77
2023/10/05 00:43:27;;;;;;;8.35;3.03;;;16.70;91.40;;;;;;7380227;19;20050;-77
2023/10/05 00:45:58;;;;;;;10.27;3.47;;;16.60;91.30;;;;;;7381361;19;20014;-77
2023/10/05 00:48:34;;;;;;;10.05;3.63;;;16.60;91.40;;;;;;7401793;19;20020;-76
2023/10/05 00:51:09;;;;;;;24.55;3.80;;;16.50;91.40;;;;;;7380023;19;20007;-78
2023/10/05 00:53:41;;;;;;;9.52;3.85;;;16.40;91.50;;;;;;7379348;19;20062;-77
2023/10/05 00:56:12;;;;;;;9.77;3.80;;;16.40;91.70;;;;;;7379369;19;20002;-76
2023/10/05 00:58:43;;;;;;;6.32;2.90;;;16.40;91.80;;;;;;7379323;19;20003;-77
2023/10/05 01:01:21;;;;;;;7.00;3.22;;;16.40;91.90;;;;;;7379551;19;20006;-77
2023/10/05 01:04:18;;;;;;;11.02;3.40;;;16.40;91.80;;;;;;7379907;19;20228;-77
2023/10/05 01:06:54;;;;;;;11.77;4.10;;;16.40;91.70;;;;;;7381244;19;20010;-78
2023/10/05 01:09:39;;;;;;;6.20;3.15;;;16.50;91.60;;;;;;7401315;19;20006;-77
2023/10/05 01:12:22;;;;;;;10.15;3.40;;;16.40;91.60;;;;;;7379261;19;20014;-76
2023/10/05 01:14:53;;;;;;;13.60;3.67;;;16.30;91.60;;;;;;7378673;19;20022;-76
2023/10/05 01:17:25;;;;;;;8.43;3.55;;;16.30;91.70;;;;;;7379080;19;20007;-76
2023/10/05 01:19:58;;;;;;;8.30;3.65;;;16.30;91.80;;;;;;7379433;19;20002;-77
2023/10/05 01:22:32;;;;;;;11.00;3.22;;;16.30;91.90;;;;;;7379163;19;20014;-77
2023/10/05 01:25:08;;;;;;;19.98;3.60;;;16.30;91.90;;;;;;7381880;19;20398;-77
2023/10/05 01:27:40;;;;;;;10.95;3.33;;;16.30;91.80;;;;;;7379042;19;20066;-77
2023/10/05 01:30:12;;;;;;;8.95;3.20;;;16.40;91.80;;;;;;7400596;19;20086;-77
2023/10/05 01:32:41;;;;;;;9.52;3.72;;;16.40;91.80;;;;;;7378391;19;20595;-76
2023/10/05 01:35:13;;;;;;;12.45;3.67;;;16.40;91.70;;;;;;7378436;19;20062;-77
2023/10/05 01:37:43;;;;;;;13.18;3.47;;;16.40;91.60;;;;;;7378807;19;20007;-76
2023/10/05 01:40:23;;;;;;;9.50;3.63;;;16.40;91.60;;;;;;7378793;19;20052;-77
2023/10/05 01:42:52;;;;;;;11.70;3.30;;;16.40;91.50;;;;;;7377393;19;20404;-78
2023/10/05 01:45:25;;;;;;;10.00;3.67;;;16.40;91.50;;;;;;7400233;19;20010;-76
2023/10/05 01:47:54;;;;;;;9.98;3.42;;;16.50;91.50;;;;;;7377946;19;20002;-77
2023/10/05 01:50:23;;;;;;;9.95;3.55;;;16.40;91.50;;;;;;7378196;19;20011;-77
2023/10/05 01:52:56;;;;;;;13.43;3.80;;;16.40;91.50;;;;;;7378903;19;20027;-77
2023/10/05 01:55:29;;;;;;;14.98;3.70;;;16.40;91.50;;;;;;7377895;19;20031;-77
2023/10/05 01:57:59;;;;;;;8.27;3.25;;;16.50;91.50;;;;;;7378345;19;20023;-76
2023/10/05 02:00:27;;;;;;;6.53;2.90;;;16.50;91.40;;;;;;7399820;19;20027;-76
2023/10/05 02:02:56;;;;;;;10.63;3.47;;;16.50;91.30;;;;;;7376183;19;20002;-76
2023/10/05 02:05:25;;;;;;;11.30;3.47;;;16.50;91.30;;;;;;7377116;19;20070;-76
2023/10/05 02:07:54;;;;;;;9.57;2.90;;;16.40;91.40;;;;;;7378208;19;19998;-76
2023/10/05 02:10:23;;;;;;;12.73;3.83;;;16.40;91.50;;;;;;7377638;19;20011;-76
2023/10/05 02:12:55;;;;;;;19.45;3.97;;;16.40;91.60;;;;;;7385503;19;20011;-75
2023/10/05 02:15:28;;;;;;;9.93;3.65;;;16.30;91.60;;;;;;7406438;19;20248;-76
2023/10/05 02:17:59;;;;;;;11.80;3.40;;;16.30;91.70;;;;;;7384437;19;20002;-76
2023/10/05 02:23:25;;;;;;;8.75;3.63;;;16.30;91.70;;;;;;7382148;19;20011;-76
2023/10/05 02:26:07;;;;;;;8.93;3.08;;;16.30;91.70;;;;;;7385136;19;20507;-77
2023/10/05 02:28:41;;;;;;;10.85;3.45;;;16.40;91.70;;;;;;7384859;19;20065;-76
2023/10/05 02:31:12;;;;;;;11.73;3.35;;;16.40;91.70;;;;;;7384759;19;20247;-77
2023/10/05 02:33:43;;;;;;;8.80;3.08;;;16.40;91.70;;;;;;7384827;19;20028;-76
2023/10/05 02:36:17;;;;;;;9.35;3.88;;;16.30;91.70;;;;;;7406319;19;20031;-77
2023/10/05 02:38:53;;;;;;;7.88;3.25;;;16.30;91.70;;;;;;7384711;19;20409;-77
2023/10/05 02:41:24;;;;;;;10.90;4.03;;;16.30;91.80;;;;;;7387707;19;20007;-77
2023/10/05 02:43:58;;;;;;;;;;;16.30;91.90;;;;;;7385695;19;20293;-77
2023/10/05 02:46:26;;;;;;;8.90;3.30;;;16.30;92.00;;;;;;7384575;19;19907;-76
2023/10/05 02:48:55;;;;;;;10.00;3.67;;;16.30;91.90;;;;;;7384394;19;20023;-77
2023/10/05 02:51:24;;;;;;;9.95;3.10;;;16.30;91.90;;;;;;7405903;19;20014;-76
2023/10/05 02:53:56;;;;;;;7.38;3.40;;;16.30;91.90;;;;;;7383042;19;20018;-77
2023/10/05 02:56:27;;;;;;;10.80;3.60;;;16.30;91.90;;;;;;7383085;19;20009;-76
2023/10/05 02:59:02;;;;;;;6.57;2.90;;;16.30;91.90;;;;;;7383310;19;20227;-76
2023/10/05 03:01:33;;;;;;;10.48;3.60;;;16.30;92.00;;;;;;7383666;19;20003;-77
2023/10/05 03:04:04;;;;;;;12.05;3.25;;;16.20;92.00;;;;;;7383883;19;20010;-76
2023/10/05 03:06:33;;;;;;;11.20;3.30;;;16.20;92.00;;;;;;7385033;19;20006;-75
2023/10/05 03:09:07;;;;;;;8.63;3.00;;;16.20;92.10;;;;;;7407177;19;20014;-76
2023/10/05 03:11:39;;;;;;;12.60;3.05;;;16.20;92.20;;;;;;7382489;19;20014;-75
2023/10/05 03:14:12;;;;;;;11.25;3.92;;;16.30;92.20;;;;;;7383078;19;20018;-77
2023/10/05 03:16:47;;;;;;;7.85;3.10;;;16.30;92.50;;;;;;7382986;19;19999;-77
2023/10/05 03:19:20;;;;;;;8.60;3.42;;;16.40;92.10;;;;;;7382460;19;20394;-76
2023/10/05 03:21:50;;;;;;;10.10;3.10;;;16.40;92.00;;;;;;7380513;19;20027;-75
2023/10/05 03:24:24;;;;;;;10.05;3.30;;;16.40;91.90;;;;;;7404561;19;20010;-77
2023/10/05 03:26:54;;;;;;;18.25;3.28;;;16.40;91.90;;;;;;7381790;19;20010;-76
2023/10/05 03:29:26;;;;;;;8.35;3.35;;;16.40;91.90;;;;;;7381211;19;20006;-76
2023/10/05 03:32:04;;;;;;;10.45;3.00;;;16.40;91.90;;;;;;7382234;19;20016;-76
2023/10/05 03:34:34;;;;;;;10.20;3.10;;;16.40;91.90;;;;;;7381017;19;20026;-76
2023/10/05 03:37:08;;;;;;;11.40;3.20;;;16.40;91.80;;;;;;7382833;19;20003;-76
2023/10/05 03:39:40;;;;;;;9.70;3.33;;;16.40;92.20;;;;;;7383037;19;20017;-76
2023/10/05 03:42:13;;;;;;;9.57;3.10;;;16.40;91.90;;;;;;7403976;19;20009;-76
2023/10/05 03:44:44;;;;;;;12.63;3.30;;;16.50;91.90;;;;;;7382251;19;20034;-78
2023/10/05 03:47:13;;;;;;;8.20;3.15;;;16.40;91.70;;;;;;7382119;19;20020;-76
2023/10/05 03:49:56;;;;;;;11.63;3.30;;;16.40;91.80;;;;;;7381772;19;20074;-78
2023/10/05 03:52:29;;;;;;;10.60;3.72;;;16.30;92.20;;;;;;7382216;19;20014;-77
2023/10/05 03:55:01;;;;;;;8.98;3.45;;;16.30;91.90;;;;;;7381877;19;20096;-77
2023/10/05 03:57:31;;;;;;;13.68;3.75;;;16.30;92.00;;;;;;7394608;19;20378;-76
2023/10/05 04:00:16;;;;;;;10.55;3.60;;;16.30;91.90;;;;;;7403185;19;20007;-76
2023/10/05 04:02:46;;;;;;;10.32;3.30;;;16.20;92.00;;;;;;7380610;19;20407;-76
2023/10/05 04:05:18;;;;;;;12.52;3.72;;;16.20;92.10;;;;;;7381042;19;20034;-76
2023/10/05 04:07:47;;;;;;;7.07;3.10;;;16.20;92.20;;;;;;7381923;19;20007;-77
2023/10/05 04:10:21;;;;;;;6.55;3.15;;;16.10;92.10;;;;;;7380959;19;20257;-76
2023/10/05 04:12:58;;;;;;;8.68;3.15;;;16.10;92.20;;;;;;7381747;19;20000;-76
2023/10/05 04:15:29;;;;;;;7.38;3.10;;;16.10;92.20;;;;;;7403106;19;20010;-76
2023/10/05 04:17:58;;;;;;;8.75;3.17;;;16.10;92.20;;;;;;7380722;19;20003;-77
2023/10/05 04:20:30;;;;;;;11.45;4.20;;;16.10;92.20;;;;;;7380317;19;19999;-75
2023/10/05 04:22:59;;;;;;;7.13;3.45;;;16.20;92.20;;;;;;7380804;19;20006;-76
2023/10/05 04:25:28;;;;;;;8.18;3.25;;;16.20;92.10;;;;;;7380392;19;20002;-75
2023/10/05 04:27:58;;;;;;;8.95;3.10;;;16.10;92.00;;;;;;7380739;19;19998;-76
2023/10/05 04:30:29;;;;;;;13.73;3.80;;;16.10;91.90;;;;;;7401765;19;20372;-76
2023/10/05 04:32:58;;;;;;;10.50;3.72;;;16.10;91.90;;;;;;7379942;19;20006;-76
2023/10/05 04:35:32;;;;;;;8.85;3.70;;;16.00;91.90;;;;;;7377098;19;20007;-76
2023/10/05 04:38:01;;;;;;;10.07;2.92;;;16.00;92.00;;;;;;7379969;19;20477;-77
2023/10/05 04:40:33;;;;;;;13.57;3.20;;;16.00;92.00;;;;;;7380433;19;20010;-75
2023/10/05 04:43:05;;;;;;;13.88;3.33;;;16.00;92.10;;;;;;7382460;19;20307;-76
2023/10/05 04:45:42;;;;;;;8.52;3.35;;;15.90;92.00;;;;;;7384232;19;20027;-76
2023/10/05 04:48:12;;;;;;;12.35;3.75;;;15.90;92.00;;;;;;7405716;19;20006;-78
2023/10/05 04:50:41;;;;;;;13.60;3.40;;;15.80;92.00;;;;;;7382615;19;20002;-77
2023/10/05 04:53:10;;;;;;;14.02;3.60;;;15.80;92.10;;;;;;7380333;19;20022;-76
2023/10/05 04:55:44;;;;;;;13.50;3.28;;;15.70;92.20;;;;;;7379702;19;20007;-75
2023/10/05 05:01:15;;;;;;;11.82;3.72;;;15.70;92.10;;;;;;7377379;19;20063;-77
2023/10/05 05:03:56;;;;;;;11.35;3.60;;;15.70;92.00;;;;;;7379651;19;20003;-76
2023/10/05 05:06:27;;;;;;;7.00;2.63;;;15.70;92.00;;;;;;7400561;19;20017;-76
2023/10/05 05:08:56;;;;;;;12.38;3.80;;;15.60;91.90;;;;;;7379261;19;20019;-76
2023/10/05 05:11:25;;;;;;;6.32;3.75;;;15.60;91.80;;;;;;7379028;19;20009;-75
2023/10/05 05:13:54;;;;;;;8.38;3.33;;;15.60;91.70;;;;;;7379448;19;20003;-76
2023/10/05 05:16:26;;;;;;;11.75;4.32;;;15.70;91.70;;;;;;7379458;19;20094;-77
2023/10/05 05:18:55;;;;;;;;;;;15.60;91.60;;;;;;7380556;19;20018;-77
2023/10/05 05:21:24;;;;;;;9.32;3.75;;;15.70;91.50;;;;;;7400859;19;19907;-76
2023/10/05 05:23:52;;;;;;;18.10;8.30;;;15.60;91.40;;;;;;7379325;19;20023;-76
2023/10/05 05:26:22;;;;;;;9.43;4.20;;;15.60;91.30;;;;;;7378890;19;20003;-76
2023/10/05 05:28:52;;;;;;;11.25;3.83;;;15.60;91.30;;;;;;7379167;19;20027;-76
2023/10/05 05:31:21;;;;;;;12.57;4.32;;;15.50;91.30;;;;;;7379441;19;19999;-76
2023/10/05 05:33:53;;;;;;;21.63;11.52;;;15.50;91.40;;;;;;7379450;19;20005;-76
2023/10/05 05:36:23;;;;;;;24.52;7.70;;;15.50;91.30;;;;;;7400483;19;20011;-76
2023/10/05 05:38:53;;;;;;;8.07;4.23;;;15.50;91.30;;;;;;7378943;19;19999;-76
2023/10/05 05:41:27;;;;;;;8.98;4.13;;;15.40;91.30;;;;;;7378913;19;20007;-76
2023/10/05 05:43:56;;;;;;;10.38;3.80;;;15.40;91.30;;;;;;7377889;19;20006;-76
2023/10/05 05:46:25;;;;;;;7.82;4.30;;;15.40;91.30;;;;;;7378047;19;20690;-76
2023/10/05 05:48:57;;;;;;;17.40;4.07;;;15.40;91.40;;;;;;7378985;19;20031;-77
2023/10/05 05:51:27;;;;;;;9.98;4.00;;;15.30;91.30;;;;;;7400809;19;20010;-77
2023/10/05 05:53:56;;;;;;;13.93;4.63;;;15.30;91.30;;;;;;7378119;19;20007;-75
2023/10/05 05:56:28;;;;;;;13.68;4.57;;;15.30;91.30;;;;;;7377582;19;20079;-76
2023/10/05 05:58:57;;;;;;;18.50;4.75;;;15.30;91.30;;;;;;7378107;19;20489;-77
2023/10/05 06:01:26;;;;;;;11.60;4.20;;;15.30;91.20;;;;;;7376775;19;20006;-76
2023/10/05 06:03:57;;;;;;;11.77;4.40;;;15.30;91.10;;;;;;7377152;19;20043;-76
2023/10/05 06:06:26;;;;;;;15.63;4.18;;;15.30;91.20;;;;;;7399659;19;20063;-75
2023/10/05 06:08:56;;;;;;;16.55;3.75;;;15.30;91.30;;;;;;7377156;19;20002;-76
2023/10/05 06:11:25;;;;;;;13.27;3.95;;;15.30;91.40;;;;;;7377051;19;20027;-76
2023/10/05 06:13:54;;;;;;;10.90;3.67;;;15.20;91.40;;;;;;7377718;19;20073;-75
2023/10/05 06:16:23;;;;;;;15.13;4.07;;;15.20;91.50;;;;;;7377296;19;20427;-75
2023/10/05 06:18:54;;;;;;;12.63;4.53;;;15.20;91.50;;;;;;7376920;19;20091;-77
2023/10/05 06:21:26;;;;;;;10.60;4.35;;;15.20;91.50;;;;;;7398442;19;20015;-76
2023/10/05 06:23:54;;;;;;;11.23;3.70;;;15.20;91.40;;;;;;7378113;19;20059;-76
2023/10/05 06:26:23;;;;;;;11.65;4.82;;;15.30;91.40;;;;;;7376567;19;20114;-77
2023/10/05 06:28:54;;;;;;;23.10;4.38;;;15.30;91.40;;;;;;7377462;19;20003;-76
2023/10/05 06:31:24;;;;;;;13.65;4.38;;;15.30;91.40;;;;;;7377035;19;20043;-77
2023/10/05 06:33:53;;;;;;;101.88;16.73;;;15.30;91.50;;;;;;7375919;19;20029;-76
2023/10/05 06:36:22;;;;;;;60.85;10.98;;;15.30;91.60;;;;;;7398792;19;20055;-77
2023/10/05 06:38:55;;;;;;;23.85;6.53;;;15.40;91.60;;;;;;7376347;19;20059;-77
2023/10/05 06:41:26;;;;;;;15.75;5.35;;;15.40;91.50;;;;;;7376725;19;20019;-77
2023/10/05 06:43:55;;;;;;;31.52;6.30;;;15.50;91.60;;;;;;7376047;19;20023;-75
2023/10/05 06:46:27;;;;;;;22.30;5.07;;;15.50;91.50;;;;;;7376658;19;20402;-75
2023/10/05 06:48:57;;;;;;;19.83;5.00;;;15.50;91.60;;;;;;7377380;19;20011;-76
2023/10/05 06:51:29;;;;;;;11.35;3.78;;;15.50;91.70;;;;;;7398533;19;20066;-76
2023/10/05 06:54:00;;;;;;;32.25;6.32;;;15.60;91.70;;;;;;7376466;19;20023;-76
2023/10/05 06:56:29;;;;;;;14.77;4.68;;;15.60;91.70;;;;;;7375924;19;20349;-76
2023/10/05 06:58:58;;;;;;;11.02;4.13;;;15.60;91.60;;;;;;7384554;19;20019;-77
2023/10/05 07:01:34;;;;;;;11.38;4.00;;;15.60;91.70;;;;;;7384682;19;20066;-76
2023/10/05 07:04:07;;;;;;;7.95;3.70;;;15.60;91.60;;;;;;7384663;19;20007;-77
2023/10/05 07:32:58;;;;;;;12.38;4.60;;;15.80;91.90;;;;;;6526780;19;3072424;-80
2023/10/05 07:35:28;;;;;;;8.43;4.15;;;16.00;92.10;;;;;;7420556;19;20042;-80
2023/10/05 07:37:56;;;;;;;22.73;4.30;;;16.10;92.20;;;;;;7418487;19;20234;-79
2023/10/05 07:40:27;;;;;;;16.17;4.82;;;16.20;92.10;;;;;;7421468;19;20011;-79
2023/10/05 07:42:56;;;;;;;12.68;4.70;;;16.30;92.00;;;;;;7419514;19;20013;-80
2023/10/05 07:45:26;;;;;;;9.13;4.07;;;16.50;92.00;;;;;;7440447;19;20010;-81
2023/10/05 07:48:01;;;;;;;13.30;4.45;;;16.60;92.00;;;;;;7418400;19;20026;-79
2023/10/05 07:50:30;;;;;;;22.80;4.65;;;16.70;92.00;;;;;;7419018;19;20025;-79
2023/10/05 07:53:09;;;;;;;14.93;4.32;;;16.80;91.80;;;;;;7424157;19;20013;-83
2023/10/05 08:09:20;;;;;;;13.25;5.78;;;16.90;91.80;;;;;;7439068;19;21049;-80
2023/10/05 08:12:02;;;;;;;19.67;5.07;;;17.00;91.90;;;;;;7425291;19;20385;-83
2023/10/05 08:14:39;;;;;;;21.15;5.20;;;17.00;92.00;;;;;;7427971;19;20020;-83
2023/10/05 09:02:00;;;;;;;19.80;4.32;;;18.00;92.00;;;;;;7361072;19;20090;-83
2023/10/05 09:04:43;;;;;;;13.48;4.20;;;18.00;91.90;;;;;;7424105;19;20035;-82
2023/10/05 09:07:35;;;;;;;18.45;4.20;;;18.00;91.70;;;;;;7422217;19;20066;-83
2023/10/05 09:10:55;;;;;;;16.75;4.15;;;18.10;91.90;;;;;;7426269;19;20642;-84
2023/10/05 09:13:46;;;;;;;9.20;3.75;;;18.20;92.00;;;;;;7413699;19;20060;-85
2023/10/05 09:32:57;;;;;;;15.00;4.07;;;18.30;91.70;;;;;;7392781;19;20297;-84
2023/10/05 09:35:33;;;;;;;18.35;5.50;;;18.30;91.60;;;;;;7387673;19;20014;-80
2023/10/05 09:38:09;;;;;;;21.38;7.20;;;18.30;91.60;;;;;;7384992;19;20010;-81
2023/10/05 09:41:11;;;;;;;13.25;5.05;;;18.40;91.80;;;;;;7387498;19;20010;-83
2023/10/05 09:46:54;;;;;;;18.33;4.78;;;18.50;91.30;;;;;;7405834;19;19922;-85
2023/10/05 09:49:23;;;;;;;28.75;4.20;;;18.60;90.90;;;;;;7384705;19;20031;-78
2023/10/05 10:03:37;;;;;;;18.10;3.45;;;18.90;87.70;;;;;;7404755;19;20007;-84
2023/10/05 10:06:11;;;;;;;17.58;3.60;;;18.90;87.20;;;;;;7385676;19;20063;-82
2023/10/05 10:08:53;;;;;;;12.48;2.67;;;19.00;86.10;;;;;;7384129;19;20018;-82
2023/10/05 10:14:59;;;;;;;9.17;2.40;;;19.00;83.30;;;;;;7414928;19;19986;-85
2023/10/05 10:27:41;;;;;;;10.85;2.83;;;19.10;82.50;;;;;;7397323;19;20010;-83
2023/10/05 10:30:20;;;;;;;14.60;3.20;;;19.20;82.70;;;;;;7403898;19;20015;-81
2023/10/05 10:35:49;;;;;;;13.25;2.58;;;19.40;84.90;;;;;;7410567;19;19906;-82
2023/10/05 10:45:04;;;;;;;9.27;3.20;;;19.60;83.90;;;;;;7402752;19;20020;-83
2023/10/05 10:47:54;;;;;;;14.25;3.22;;;19.60;83.20;;;;;;7383830;19;20058;-86
2023/10/05 10:50:53;;;;;;;10.32;2.90;;;19.60;83.20;;;;;;7387273;19;20011;-86
2023/10/05 11:03:11;;;;;;;14.65;2.83;;;19.50;82.80;;;;;;7408091;19;19975;-83
2023/10/05 11:05:39;;;;;;;8.23;2.85;;;19.40;83.20;;;;;;7383994;19;20010;-82
2023/10/05 11:08:20;;;;;;;14.15;3.05;;;19.30;83.30;;;;;;7381942;19;20011;-87
2023/10/05 11:14:05;;;;;;;13.45;2.97;;;19.20;82.70;;;;;;7387466;19;20029;-79
2023/10/05 11:16:43;;;;;;;9.90;2.78;;;19.20;82.80;;;;;;7384971;19;20014;-81
2023/10/05 11:25:47;;;;;;;9.38;2.97;;;19.10;82.50;;;;;;7363805;19;20013;-82
2023/10/05 11:28:38;;;;;;;18.98;2.88;;;19.20;82.50;;;;;;7381182;19;20016;-83
2023/10/05 11:31:11;;;;;;;7.97;3.05;;;19.20;83.50;;;;;;7383781;19;20011;-82
2023/10/05 11:33:44;;;;;;;13.82;3.22;;;19.30;83.60;;;;;;7383130;19;20249;-78
2023/10/05 11:36:42;;;;;;;9.23;3.13;;;19.30;83.40;;;;;;7407434;19;20003;-86
2023/10/05 11:39:21;;;;;;;11.30;2.85;;;19.30;82.30;;;;;;7388570;19;20006;-79
2023/10/05 11:41:59;;;;;;;11.50;2.80;;;19.30;82.10;;;;;;7376822;19;20013;-78
2023/10/05 11:45:21;;;;;;;14.48;2.90;;;19.40;82.10;;;;;;7381973;19;20015;-82
2023/10/05 12:09:54;;;;;;;10.50;2.47;;;19.80;78.50;;;;;;7385512;19;19979;-79
2023/10/05 12:26:03;;;;;;;9.35;2.75;;;20.30;75.90;;;;;;7420268;19;20148;-79
2023/10/05 12:28:32;;;;;;;11.70;2.78;;;20.30;76.80;;;;;;7415130;19;20007;-76
2023/10/05 12:31:02;;;;;;;9.00;2.90;;;20.50;76.30;;;;;;7416021;19;20007;-77
2023/10/05 12:33:43;;;;;;;9.35;2.70;;;20.50;75.90;;;;;;7431289;19;20244;-82
2023/10/05 12:36:40;;;;;;;10.40;2.88;;;20.50;75.40;;;;;;7439477;19;20252;-85
2023/10/05 12:39:11;;;;;;;11.50;3.00;;;20.60;75.80;;;;;;7419556;19;20030;-82
2023/10/05 12:41:49;;;;;;;10.00;2.90;;;20.70;75.20;;;;;;7418140;19;20413;-82
2023/10/05 12:48:00;;;;;;;10.25;2.90;;;20.80;74.40;;;;;;7419142;19;20007;-84
2023/10/05 12:50:30;;;;;;;12.18;2.58;;;20.90;74.40;;;;;;7417721;19;20005;-82
2023/10/05 12:52:59;;;;;;;9.98;2.80;;;21.00;74.00;;;;;;7415038;19;20071;-79
2023/10/05 13:01:57;;;;;;;9.15;2.88;;;21.10;72.60;;;;;;7417931;19;20010;-80
2023/10/05 13:04:31;;;;;;;7.70;2.65;;;21.00;71.90;;;;;;7417906;19;20258;-82
2023/10/05 13:06:59;;;;;;;7.70;2.70;;;21.00;70.40;;;;;;7413285;19;20218;-77
2023/10/05 13:09:28;;;;;;;8.93;2.38;;;21.00;70.00;;;;;;7432690;19;20074;-79
2023/10/05 13:12:03;;;;;;;7.28;2.10;;;20.90;69.80;;;;;;7415715;19;20067;-79
2023/10/05 13:14:35;;;;;;;9.07;2.95;;;20.90;70.80;;;;;;7415271;19;20123;-83
2023/10/05 13:17:11;;;;;;;10.00;2.45;;;20.90;71.20;;;;;;7414086;19;20039;-81
2023/10/05 13:19:53;;;;;;;7.40;2.55;;;21.00;71.20;;;;;;7420150;19;20007;-84
2023/10/05 13:49:01;;;;;;;9.65;2.50;;;21.00;69.70;;;;;;7396765;19;20013;-79
2023/10/05 13:51:50;;;;;;;6.70;2.42;;;21.00;69.00;;;;;;7403599;19;20006;-81
2023/10/05 13:54:21;;;;;;;11.13;3.05;;;21.00;69.60;;;;;;7411754;19;20013;-80
2023/10/05 13:56:50;;;;;;;13.25;3.05;;;21.00;69.70;;;;;;7388841;19;20007;-77
2023/10/05 13:59:21;;;;;;;12.82;2.88;;;21.00;69.80;;;;;;7387582;19;20006;-79
2023/10/05 14:01:55;;;;;;;15.30;3.15;;;21.10;70.80;;;;;;7390190;19;20024;-80
2023/10/05 14:22:14;;;;;;;10.13;2.80;;;21.50;69.20;;;;;;7406825;19;20445;-82
2023/10/05 15:21:13;;;;;;;11.57;2.60;;;21.30;69.90;;;;;;7381955;19;20007;-77
2023/10/05 15:23:59;;;;;;;13.15;2.70;;;21.40;72.10;;;;;;7385325;19;20024;-82
2023/10/05 15:26:28;;;;;;;9.70;3.10;;;21.40;73.90;;;;;;7385378;19;20003;-80
2023/10/05 15:29:29;;;;;;;8.93;2.65;;;21.40;73.70;;;;;;7386297;19;20003;-84
2023/10/05 15:37:14;;;;;;;13.18;2.60;;;21.60;70.10;;;;;;7306677;19;20050;-81
2023/10/05 15:48:31;;;;;;;8.23;2.67;;;21.60;69.50;;;;;;7402726;19;20037;-76
2023/10/05 15:51:00;;;;;;;9.55;2.63;;;21.50;70.30;;;;;;7379153;19;20051;-78
2023/10/05 15:53:32;;;;;;;8.75;2.45;;;21.50;71.40;;;;;;7377384;19;20020;-77
2023/10/05 15:56:02;;;;;;;15.38;2.90;;;21.50;72.40;;;;;;7379366;19;20095;-79
2023/10/05 15:58:31;;;;;;;16.08;2.97;;;21.50;71.30;;;;;;7388261;19;20101;-81
2023/10/05 16:01:21;;;;;;;11.13;2.90;;;21.50;70.50;;;;;;7381817;19;20007;-80
2023/10/05 16:06:51;;;;;;;10.50;2.97;;;21.50;72.70;;;;;;7379871;19;20017;-80
2023/10/05 16:09:26;;;;;;;9.90;2.50;;;21.50;74.20;;;;;;7400237;19;20018;-79
2023/10/05 16:12:07;;;;;;;6.78;2.67;;;21.50;74.40;;;;;;7382946;19;20041;-80
2023/10/05 16:14:35;;;;;;;12.57;2.60;;;21.40;74.50;;;;;;7380026;19;20007;-80
2023/10/05 16:17:04;;;;;;;7.07;2.45;;;21.40;75.70;;;;;;7378297;19;20280;-78
2023/10/05 16:19:37;;;;;;;6.18;2.53;;;21.30;76.80;;;;;;7375972;19;20362;-77
2023/10/05 16:22:08;;;;;;;9.43;2.72;;;21.30;77.40;;;;;;7377455;19;20006;-78
2023/10/05 16:24:39;;;;;;;7.37;2.67;;;21.20;77.90;;;;;;7381345;19;20034;-79
2023/10/05 16:27:08;;;;;;;;;;;21.10;78.40;;;;;;7399491;19;20260;-76
2023/10/05 16:29:39;;;;;;;8.07;2.75;;;21.00;79.20;;;;;;7383881;19;19933;-80
2023/10/05 16:32:09;;;;;;;10.57;2.45;;;20.90;79.40;;;;;;7380848;19;20034;-79
2023/10/05 16:34:38;;;;;;;12.88;2.63;;;20.80;79.40;;;;;;7378747;19;20019;-80
2023/10/05 16:37:07;;;;;;;10.65;2.28;;;20.70;79.70;;;;;;7382437;19;20019;-78
2023/10/05 16:39:39;;;;;;;11.80;2.60;;;20.60;80.00;;;;;;7380992;19;20339;-77
2023/10/05 16:42:09;;;;;;;9.70;2.40;;;20.50;80.80;;;;;;7400496;19;20107;-77
2023/10/05 16:44:39;;;;;;;11.88;2.90;;;20.40;81.00;;;;;;7377194;19;20009;-78
2023/10/05 16:47:10;;;;;;;9.18;2.50;;;20.30;81.10;;;;;;7381708;19;20010;-79
2023/10/05 16:49:38;;;;;;;11.27;2.22;;;20.30;81.30;;;;;;7381402;19;20055;-79
2023/10/05 16:52:08;;;;;;;6.85;2.22;;;20.10;81.00;;;;;;7381733;19;20007;-78
2023/10/05 16:54:40;;;;;;;12.48;3.20;;;20.10;81.20;;;;;;7380144;19;20018;-80
2023/10/05 16:57:09;;;;;;;7.28;2.90;;;20.00;81.40;;;;;;7399912;19;20011;-74
2023/10/05 16:59:39;;;;;;;8.60;2.65;;;19.90;81.90;;;;;;7376675;19;20009;-76
2023/10/05 17:02:08;;;;;;;5.95;2.70;;;19.80;82.10;;;;;;7379132;19;20030;-74
2023/10/05 17:04:45;;;;;;;8.25;2.70;;;19.70;82.10;;;;;;7380941;19;20604;-80
2023/10/05 17:07:14;;;;;;;32.28;3.20;;;19.70;82.20;;;;;;7386523;19;20534;-81
2023/10/05 17:09:45;;;;;;;5.95;2.20;;;19.60;82.00;;;;;;7379705;19;20035;-79
2023/10/05 17:35:53;;;;;;;8.25;2.63;;;19.10;82.10;;;;;;6596372;19;15092396;-88
2023/10/05 21:54:50;;;;;;;17.67;4.40;;;16.50;90.00;;;;;;7364242;19;20010;-81
2023/10/05 21:57:21;;;;;;;17.55;4.68;;;16.40;89.90;;;;;;7379790;19;20019;-81
2023/10/05 21:59:49;;;;;;;9.25;3.88;;;16.50;90.00;;;;;;7381588;19;20003;-81
2023/10/05 22:02:18;;;;;;;11.68;3.88;;;16.50;90.10;;;;;;7379634;19;20030;-81
2023/10/05 22:04:52;;;;;;;12.98;4.80;;;16.50;90.10;;;;;;7380880;19;20014;-80
2023/10/05 22:07:22;;;;;;;15.13;5.93;;;16.40;90.00;;;;;;7382136;19;20218;-80
2023/10/05 22:09:53;;;;;;;12.60;4.70;;;16.40;90.00;;;;;;7397696;19;20004;-80
2023/10/05 22:12:22;;;;;;;;;;;16.40;90.00;;;;;;7429029;19;19999;-79
2023/10/05 22:14:54;;;;;;;16.80;5.20;;;16.40;90.00;;;;;;7406065;19;19907;-78
2023/10/05 22:17:22;;;;;;;11.55;4.50;;;16.40;90.00;;;;;;7389776;19;20361;-81
2023/10/05 22:19:54;;;;;;;15.32;4.80;;;16.30;90.10;;;;;;7389617;19;20027;-81
2023/10/05 22:22:23;;;;;;;13.43;4.82;;;16.30;90.20;;;;;;7389733;19;20011;-80
2023/10/05 22:24:55;;;;;;;17.90;4.40;;;16.30;90.20;;;;;;7388178;19;20500;-80
2023/10/05 22:27:24;;;;;;;10.63;4.30;;;16.30;90.30;;;;;;7414168;19;20010;-80
2023/10/05 22:29:53;;;;;;;14.05;4.80;;;16.30;90.20;;;;;;7386690;19;20083;-80
2023/10/05 22:32:21;;;;;;;11.15;4.70;;;16.30;90.30;;;;;;7387174;19;20090;-81
2023/10/05 22:34:50;;;;;;;12.52;3.97;;;16.20;90.20;;;;;;7386141;19;20317;-81
2023/10/05 22:37:19;;;;;;;14.95;4.20;;;16.30;90.20;;;;;;7387255;19;20014;-80
2023/10/05 22:39:48;;;;;;;10.95;4.72;;;16.20;90.20;;;;;;7384858;19;20018;-80
2023/10/05 22:42:19;;;;;;;21.20;9.02;;;16.20;90.30;;;;;;7409195;19;20042;-80
2023/10/05 22:44:49;;;;;;;16.20;6.70;;;16.20;90.30;;;;;;7388163;19;20290;-79
2023/10/05 22:47:22;;;;;;;10.82;5.10;;;16.20;90.20;;;;;;7389470;19;20242;-80
2023/10/05 22:49:51;;;;;;;7.85;3.95;;;16.20;90.10;;;;;;7386465;19;19999;-81
2023/10/05 22:52:20;;;;;;;13.98;5.00;;;16.20;90.00;;;;;;7385776;19;20002;-80
2023/10/05 22:54:49;;;;;;;7.60;3.97;;;16.20;90.10;;;;;;7385555;19;20026;-79
2023/10/05 22:57:20;;;;;;;10.60;4.47;;;16.10;90.10;;;;;;7406089;19;20058;-81
2023/10/05 22:59:49;;;;;;;;;;;16.10;90.20;;;;;;7387828;19;20010;-80
2023/10/05 23:02:17;;;;;;;11.13;4.90;;;16.10;90.20;;;;;;7385110;19;19942;-81
2023/10/05 23:04:47;;;;;;;13.88;6.40;;;16.10;90.10;;;;;;7386390;19;20007;-81
2023/10/05 23:07:17;;;;;;;20.27;8.32;;;16.10;90.10;;;;;;7384524;19;20103;-81
2023/10/05 23:09:47;;;;;;;13.18;4.43;;;16.10;90.10;;;;;;7386322;19;20007;-80
2023/10/05 23:12:18;;;;;;;12.70;4.65;;;16.00;90.20;;;;;;7407958;19;20071;-81
2023/10/05 23:14:50;;;;;;;11.43;4.18;;;16.00;90.20;;;;;;7385526;19;20385;-79
2023/10/05 23:17:23;;;;;;;17.52;4.75;;;16.00;90.30;;;;;;7388235;19;20350;-81
2023/10/05 23:19:52;;;;;;;14.73;4.28;;;16.00;90.30;;;;;;7385218;19;20401;-80
2023/10/05 23:22:21;;;;;;;9.05;4.68;;;16.00;90.20;;;;;;7385639;19;20010;-79